Time;durP1;ratioP1;P1;durP2;ratioP2;P2;SDS_P1;SDS_P2;PMS_P1;PMS_P2;Temp;Humidity;BMP_temperature;BMP_pressure;BME280_temperature;BME280_humidity;BME280_pressure;Samples;Min_cycle;Max_cycle;Signal;HPM_P1;HPM_P2
2021/03/23 00:01:34;;;;;;;7.95;7.15;;;;;;;2.36;77.90;93728.33;828519;71;32669;-83
2021/03/23 01:02:10;;;;;;;;;;;;;;;;;;;;;
2021/03/23 01:16:27;;;;;;;7.40;6.50;;;;;;;2.78;80.16;93795.49;828004;71;31372;-83
2021/03/23 01:31:38;;;;;;;17.23;13.18;;;;;;;2.81;80.90;93792.38;825080;70;31408;-83
2021/03/23 02:46:39;;;;;;;9.13;6.40;;;;;;;2.39;77.51;93808.84;829949;71;33329;-86
2021/03/23 04:01:47;;;;;;;20.17;14.60;;;;;;;2.61;80.33;93850.07;829105;70;32779;-84
2021/03/23 04:17:00;;;;;;;;;;;;;;;;;;;;;
2021/03/23 05:01:19;;;;;;;19.25;13.65;;;;;;;2.37;78.76;93830.81;835014;71;29733;-77
2021/03/23 05:16:21;;;;;;;19.77;13.38;;;;;;;2.68;78.18;93896.47;827577;71;31449;-75
2021/03/23 05:31:17;;;;;;;18.67;12.33;;;;;;;2.13;77.15;93827.85;834243;71;29714;-74
2021/03/23 05:46:18;;;;;;;16.45;11.40;;;;;;;2.39;77.75;93903.33;830475;71;29739;-75
2021/03/23 06:01:40;;;;;;;17.60;12.30;;;;;;;2.39;76.98;93928.41;827425;71;32783;-76
2021/03/23 06:16:15;;;;;;;11.90;9.35;;;;;;;2.03;77.33;93933.87;814870;71;29722;-75
2021/03/23 06:31:36;;;;;;;11.35;9.25;;;;;;;2.09;77.35;93944.52;827046;71;33154;-75
2021/03/23 06:46:29;;;;;;;10.85;7.92;;;;;;;2.90;73.48;93955.89;827047;71;32765;-75
2021/03/23 07:01:18;;;;;;;10.50;7.72;;;;;;;3.82;69.28;93974.81;827332;71;32685;-76
2021/03/23 07:16:22;;;;;;;7.60;6.37;;;;;;;2.70;69.79;93979.87;833970;71;33207;-76
2021/03/23 07:31:22;;;;;;;11.45;7.97;;;;;;;2.63;72.03;93990.96;827353;71;32689;-77
2021/03/23 07:46:14;;;;;;;11.35;8.50;;;;;;;2.26;72.51;94015.05;828811;71;29694;-78
2021/03/23 08:01:20;;;;;;;9.33;6.67;;;;;;;1.99;72.34;94022.86;833567;71;33219;-77
2021/03/23 08:16:44;;;;;;;6.60;4.95;;;;;;;1.65;72.07;94031.32;833670;71;32773;-76
2021/03/23 08:31:19;;;;;;;6.53;5.10;;;;;;;1.47;73.05;94037.59;827947;71;33143;-77
2021/03/23 08:46:17;;;;;;;5.72;5.12;;;;;;;1.88;74.80;94036.71;827680;71;30352;-76
2021/03/23 09:01:42;;;;;;;6.05;5.45;;;;;;;2.39;71.87;94035.36;827159;71;32726;-75
2021/03/23 09:16:18;;;;;;;6.35;5.20;;;;;;;2.86;69.61;94028.67;826887;71;32680;-75
2021/03/23 09:31:16;;;;;;;7.15;4.85;;;;;;;2.80;68.07;94035.63;827967;71;30275;-78
2021/03/23 09:46:43;;;;;;;6.95;5.78;;;;;;;2.87;65.64;94037.98;828209;71;32677;-77
2021/03/23 10:01:20;;;;;;;7.60;6.30;;;;;;;3.35;64.22;94043.94;834522;71;29718;-75
2021/03/23 10:16:33;;;;;;;6.85;6.12;;;;;;;3.51;64.22;94043.48;828393;71;32278;-76
2021/03/23 10:31:11;;;;;;;6.85;5.35;;;;;;;3.27;63.09;94047.53;828328;71;29664;-76
2021/03/23 10:46:37;;;;;;;8.00;6.00;;;;;;;3.45;64.53;94060.55;828577;71;32675;-75
2021/03/23 11:01:21;;;;;;;6.70;5.97;;;;;;;3.85;64.96;94056.02;828068;71;30177;-76
2021/03/23 11:16:17;;;;;;;8.25;6.37;;;;;;;3.97;63.20;94059.68;827141;71;32843;-74
2021/03/23 11:31:09;;;;;;;13.05;8.90;;;;;;;4.92;61.40;94050.62;832509;71;29704;-77
2021/03/23 11:46:32;;;;;;;8.68;7.37;;;;;;;5.85;60.05;94036.23;827088;71;32729;-74
2021/03/23 12:01:15;;;;;;;7.92;6.87;;;;;;;6.54;55.85;94039.72;827230;71;32800;-75
2021/03/23 12:16:15;;;;;;;10.05;8.03;;;;;;;6.74;55.60;94029.64;820014;71;30239;-75
2021/03/23 12:31:16;;;;;;;9.50;7.90;;;;;;;5.41;56.13;94036.45;827257;71;33188;-76
2021/03/23 12:46:10;;;;;;;9.13;7.97;;;;;;;5.36;57.83;94026.58;827949;71;30330;-77
2021/03/23 13:01:15;;;;;;;10.65;8.68;;;;;;;5.16;59.27;94031.33;827948;71;33090;-75
2021/03/23 13:16:10;;;;;;;11.22;9.33;;;;;;;5.05;60.65;94030.58;833836;71;29775;-75
2021/03/23 13:31:16;;;;;;;13.20;11.60;;;;;;;4.75;65.86;94050.38;827153;71;33360;-77
2021/03/23 13:46:40;;;;;;;12.53;10.18;;;;;;;4.51;68.08;94045.47;827620;71;32761;-75
2021/03/23 14:01:16;;;;;;;13.05;11.18;;;;;;;4.33;68.61;94042.86;827045;71;32861;-76
2021/03/23 14:16:09;;;;;;;14.18;11.88;;;;;;;3.87;71.24;94054.47;833649;71;30257;-76
2021/03/23 14:31:13;;;;;;;15.05;12.53;;;;;;;3.47;72.06;94042.92;833867;71;32736;-77
2021/03/23 14:46:18;;;;;;;19.45;14.45;;;;;;;3.44;72.71;94055.89;827131;71;32784;-78
2021/03/23 15:01:37;;;;;;;18.73;12.90;;;;;;;3.37;72.77;94048.35;833776;71;31713;-75
2021/03/23 15:16:19;;;;;;;16.20;12.35;;;;;;;3.37;72.68;94043.69;827597;71;29722;-79
2021/03/23 15:31:14;;;;;;;19.20;13.60;;;;;;;3.37;72.42;94054.06;834254;71;32748;-76
2021/03/23 15:46:15;;;;;;;18.70;14.75;;;;;;;3.70;71.64;94065.07;826984;71;32771;-75
2021/03/23 16:01:16;;;;;;;16.75;13.98;;;;;;;3.39;70.45;94064.96;833778;71;30294;-76
2021/03/23 16:16:28;;;;;;;22.42;17.42;;;;;;;2.95;71.38;94093.22;828568;71;31566;-76
2021/03/23 16:31:20;;;;;;;23.35;17.10;;;;;;;2.73;72.56;94110.16;821665;71;29913;-77
2021/03/23 16:46:29;;;;;;;22.50;17.17;;;;;;;2.57;73.16;94125.32;833718;71;32831;-76
2021/03/23 17:16:40;;;;;;;;;;;;;;;;;;;;;
2021/03/23 18:31:40;;;;;;;;;;;;;;;;;;;;;
2021/03/23 20:46:43;;;;;;;13.78;10.75;;;;;;;3.01;67.52;94068.13;793439;74;32796;-85
2021/03/23 21:31:49;;;;;;;11.40;9.23;;;;;;;3.07;66.97;94044.33;829721;71;33309;-83
2021/03/23 21:46:59;;;;;;;12.33;8.88;;;;;;;2.66;66.63;93987.88;834027;71;32757;-83
2021/03/23 23:16:58;;;;;;;7.70;6.85;;;;;;;3.07;65.92;93991.97;808261;72;33258;-83
2021/03/23 23:46:40;;;;;;;8.35;6.45;;;;;;;3.05;65.54;93961.64;833977;71;32862;-81
